Time;durP1;ratioP1;P1;durP2;ratioP2;P2;SDS_P1;SDS_P2;PMS_P1;PMS_P2;Temp;Humidity;BMP_temperature;BMP_pressure;BME280_temperature;BME280_humidity;BME280_pressure;Samples;Min_cycle;Max_cycle;Signal;HPM_P1;HPM_P2
2022/07/15 00:00:20;;;;;;;3.80;1.90;;;19.30;52.40;;;;;;5014621;28;20096;-48
2022/07/15 00:02:47;;;;;;;2.85;2.20;;;19.30;52.60;;;;;;5008700;28;20030;-46
2022/07/15 00:05:24;;;;;;;2.45;2.28;;;19.30;52.80;;;;;;5016477;28;20041;-47
2022/07/15 00:07:51;;;;;;;5.70;2.63;;;19.30;52.80;;;;;;4995435;28;20566;-46
2022/07/15 00:10:18;;;;;;;5.32;2.35;;;19.30;52.80;;;;;;5016901;28;20498;-47
2022/07/15 00:12:51;;;;;;;2.90;2.30;;;19.20;52.70;;;;;;5008770;28;20042;-47
2022/07/15 00:15:22;;;;;;;4.38;2.08;;;19.20;52.90;;;;;;5016229;28;20104;-46
2022/07/15 00:17:50;;;;;;;4.45;2.08;;;19.20;53.20;;;;;;5010529;28;20041;-48
2022/07/15 00:20:18;;;;;;;6.03;2.22;;;19.20;53.20;;;;;;5008969;28;20050;-47
2022/07/15 00:22:48;;;;;;;5.63;1.88;;;19.10;53.30;;;;;;5016414;28;20109;-47
2022/07/15 00:25:16;;;;;;;3.83;2.28;;;19.10;53.60;;;;;;5003173;28;20045;-49
2022/07/15 00:28:08;;;;;;;2.28;2.08;;;19.10;53.60;;;;;;5005462;28;20084;-47
2022/07/15 00:30:42;;;;;;;2.60;1.90;;;19.10;54.30;;;;;;5005049;28;20116;-46
2022/07/15 00:33:10;;;;;;;5.93;3.10;;;19.10;54.20;;;;;;5015819;28;20045;-46
2022/07/15 00:35:39;;;;;;;3.58;2.20;;;19.10;53.80;;;;;;5010285;28;20051;-46
2022/07/15 00:38:11;;;;;;;5.03;2.17;;;19.10;54.30;;;;;;5016305;28;20446;-49
2022/07/15 00:40:46;;;;;;;2.63;2.08;;;19.10;54.10;;;;;;5002042;28;20034;-46
2022/07/15 00:43:18;;;;;;;4.22;2.60;;;19.10;54.30;;;;;;5005334;28;20116;-47
2022/07/15 00:45:46;;;;;;;2.70;2.30;;;19.10;53.90;;;;;;4979322;28;20046;-49
2022/07/15 00:48:13;;;;;;;3.65;2.70;;;19.10;54.20;;;;;;5011715;28;20453;-51
2022/07/15 00:50:52;;;;;;;5.13;2.38;;;19.10;54.40;;;;;;5012033;28;20117;-47
2022/07/15 00:53:23;;;;;;;5.63;2.38;;;19.10;54.90;;;;;;4996220;28;20097;-49
2022/07/15 00:55:56;;;;;;;2.83;2.60;;;19.20;54.70;;;;;;5002708;28;20524;-50
2022/07/15 00:58:27;;;;;;;3.20;2.58;;;19.20;55.10;;;;;;4998174;28;20109;-49
2022/07/15 01:00:54;;;;;;;3.20;2.28;;;19.20;55.10;;;;;;4995007;28;20635;-50
2022/07/15 01:03:25;;;;;;;4.53;2.38;;;19.30;55.00;;;;;;5000539;28;20084;-47
2022/07/15 01:05:57;;;;;;;7.47;3.03;;;19.30;55.10;;;;;;5006702;28;20049;-51
2022/07/15 01:08:26;;;;;;;4.97;2.50;;;19.30;55.20;;;;;;4997824;28;20137;-49
2022/07/15 01:10:57;;;;;;;4.65;2.25;;;19.30;55.00;;;;;;4993902;28;22295;-48
2022/07/15 01:13:27;;;;;;;4.53;2.28;;;19.40;55.80;;;;;;4994817;28;20542;-51
2022/07/15 01:15:54;;;;;;;2.67;2.30;;;19.40;55.00;;;;;;4983078;28;20042;-50
2022/07/15 01:18:23;;;;;;;5.22;2.00;;;19.40;54.90;;;;;;4984252;28;20034;-49
2022/07/15 01:20:57;;;;;;;5.65;2.55;;;19.40;54.80;;;;;;4992580;28;20626;-51
2022/07/15 01:23:27;;;;;;;5.75;2.22;;;19.40;55.40;;;;;;4974896;28;20041;-46
2022/07/15 01:26:13;;;;;;;6.40;2.75;;;19.40;54.90;;;;;;4986518;28;20046;-47
2022/07/15 01:28:47;;;;;;;4.68;2.25;;;19.30;54.70;;;;;;5007888;28;20045;-51
2022/07/15 01:31:15;;;;;;;6.03;2.53;;;19.30;54.70;;;;;;4982532;28;20100;-51
2022/07/15 01:33:44;;;;;;;3.45;2.10;;;19.30;54.80;;;;;;4985332;28;20041;-50
2022/07/15 01:36:13;;;;;;;3.38;2.03;;;19.30;54.80;;;;;;4986986;28;20057;-48
2022/07/15 01:38:46;;;;;;;6.57;2.25;;;19.30;54.90;;;;;;5011655;28;20494;-49
2022/07/15 01:41:37;;;;;;;4.93;2.75;;;19.20;54.80;;;;;;4971810;28;20042;-50
2022/07/15 01:44:10;;;;;;;4.10;2.00;;;19.20;54.80;;;;;;4987365;28;20042;-46
2022/07/15 01:46:43;;;;;;;5.70;1.88;;;19.20;54.90;;;;;;4986644;28;20046;-48
2022/07/15 01:49:22;;;;;;;3.42;1.75;;;19.20;55.30;;;;;;4993427;28;20755;-51
2022/07/15 01:52:12;;;;;;;3.47;2.28;;;19.20;55.60;;;;;;4986357;28;20051;-47
2022/07/15 01:54:44;;;;;;;6.03;2.30;;;19.10;54.90;;;;;;4987092;28;20510;-49
2022/07/15 01:57:13;;;;;;;4.78;2.38;;;19.10;55.10;;;;;;4994542;28;20113;-46
2022/07/15 01:59:49;;;;;;;3.90;2.28;;;19.10;55.00;;;;;;4979260;28;20072;-48
2022/07/15 02:02:42;;;;;;;;;;;19.10;55.20;;;;;;5003210;28;20052;-48
2022/07/15 02:05:09;;;;;;;6.40;2.08;;;19.20;54.60;;;;;;4987200;28;19959;-45
2022/07/15 02:07:39;;;;;;;3.28;2.20;;;19.20;54.60;;;;;;4994439;28;20521;-47
2022/07/15 02:10:08;;;;;;;6.03;2.60;;;19.20;54.90;;;;;;4979088;28;20046;-49
2022/07/15 02:12:45;;;;;;;4.47;1.98;;;19.10;55.10;;;;;;5002774;28;20296;-46
2022/07/15 02:15:15;;;;;;;7.20;2.50;;;19.20;55.30;;;;;;4994729;28;20049;-49
2022/07/15 02:17:52;;;;;;;3.03;1.95;;;19.10;55.00;;;;;;5007191;28;20426;-47
2022/07/15 02:20:23;;;;;;;5.10;2.17;;;19.10;54.80;;;;;;4978093;28;20065;-44
2022/07/15 02:22:58;;;;;;;5.17;2.17;;;19.10;54.80;;;;;;4998053;28;20511;-48
2022/07/15 02:25:26;;;;;;;6.75;2.20;;;19.10;54.70;;;;;;4992897;28;20762;-45
2022/07/15 02:28:02;;;;;;;4.18;1.98;;;19.10;54.70;;;;;;4974553;28;20077;-51
2022/07/15 02:30:37;;;;;;;2.50;1.50;;;19.10;54.80;;;;;;4972273;28;20046;-44
2022/07/15 02:33:07;;;;;;;3.70;1.63;;;19.00;55.00;;;;;;4984568;28;20137;-51
2022/07/15 02:35:35;;;;;;;6.15;1.80;;;19.00;54.60;;;;;;4994588;28;20053;-47
2022/07/15 02:38:03;;;;;;;7.45;2.28;;;18.90;54.70;;;;;;4979335;28;20042;-46
2022/07/15 02:40:32;;;;;;;5.10;2.00;;;18.90;54.70;;;;;;4982246;28;20054;-47
2022/07/15 02:43:02;;;;;;;4.65;2.05;;;18.90;54.70;;;;;;4992124;28;20045;-50
2022/07/15 02:45:34;;;;;;;3.72;1.40;;;18.80;54.80;;;;;;4994373;28;20267;-51
2022/07/15 02:48:07;;;;;;;3.75;1.70;;;18.70;54.70;;;;;;4982205;28;20745;-50
2022/07/15 02:50:41;;;;;;;4.88;1.48;;;18.70;54.80;;;;;;4985867;28;20041;-50
2022/07/15 02:53:09;;;;;;;5.05;2.42;;;18.60;54.90;;;;;;4985975;28;20048;-50
2022/07/15 02:55:39;;;;;;;5.90;2.20;;;18.50;54.90;;;;;;5004791;28;20057;-49
2022/07/15 02:58:06;;;;;;;2.70;1.65;;;18.40;55.00;;;;;;4972274;28;20078;-48
2022/07/15 03:00:34;;;;;;;4.60;1.88;;;18.40;54.90;;;;;;4999923;28;20030;-51
2022/07/15 03:03:03;;;;;;;5.15;1.90;;;18.30;54.80;;;;;;5009573;28;20050;-47
2022/07/15 03:05:35;;;;;;;2.72;1.55;;;18.30;54.90;;;;;;4993880;28;20145;-51
2022/07/15 03:08:02;;;;;;;3.08;1.60;;;18.20;54.80;;;;;;4979843;28;20049;-49
2022/07/15 03:10:29;;;;;;;2.78;1.35;;;18.10;54.90;;;;;;4976003;28;20049;-47
2022/07/15 03:12:56;;;;;;;2.65;1.73;;;18.10;55.00;;;;;;4990667;28;20033;-49
2022/07/15 03:15:23;;;;;;;2.72;1.63;;;18.00;55.00;;;;;;4988294;28;20534;-47
2022/07/15 03:17:51;;;;;;;2.83;1.60;;;17.90;54.90;;;;;;4990036;28;20061;-49
2022/07/15 03:20:22;;;;;;;3.50;1.27;;;17.90;55.00;;;;;;4995688;28;20093;-46
2022/07/15 03:22:53;;;;;;;5.15;1.90;;;17.80;54.80;;;;;;4990979;28;20046;-51
2022/07/15 03:25:20;;;;;;;2.92;1.70;;;17.80;55.10;;;;;;4994651;28;20502;-47
2022/07/15 03:27:50;;;;;;;5.45;1.88;;;17.70;55.30;;;;;;4988361;28;20042;-48
2022/07/15 03:30:24;;;;;;;3.47;1.80;;;17.60;55.20;;;;;;4996592;28;20041;-46
2022/07/15 03:32:55;;;;;;;3.15;1.90;;;17.50;55.20;;;;;;4991976;28;20050;-50
2022/07/15 03:35:23;;;;;;;6.40;2.13;;;17.50;55.60;;;;;;4977294;28;20418;-45
2022/07/15 03:37:55;;;;;;;6.50;3.22;;;17.40;55.60;;;;;;4997880;28;20061;-46
2022/07/15 03:40:27;;;;;;;5.15;1.88;;;17.40;56.10;;;;;;4970579;28;20511;-48
2022/07/15 03:43:00;;;;;;;2.65;1.80;;;17.30;56.70;;;;;;4971007;28;20137;-47
2022/07/15 03:45:31;;;;;;;4.60;2.13;;;17.30;56.40;;;;;;4997933;28;20096;-50
2022/07/15 03:48:03;;;;;;;4.10;2.28;;;17.30;56.70;;;;;;4982984;28;20419;-46
2022/07/15 03:50:36;;;;;;;3.15;2.17;;;17.30;56.80;;;;;;4993505;28;20042;-46
2022/07/15 03:53:05;;;;;;;4.15;2.13;;;17.30;57.20;;;;;;5003197;28;20049;-46
2022/07/15 03:55:33;;;;;;;5.90;2.40;;;17.20;57.20;;;;;;4981713;28;20038;-46
2022/07/15 03:58:02;;;;;;;7.53;2.70;;;17.30;57.30;;;;;;5002721;28;20564;-47
2022/07/15 04:00:33;;;;;;;2.67;2.35;;;17.20;57.50;;;;;;4993114;28;20491;-49
2022/07/15 04:03:01;;;;;;;5.38;2.83;;;17.20;57.60;;;;;;5001590;28;20051;-47
2022/07/15 04:05:28;;;;;;;3.83;2.38;;;17.20;57.80;;;;;;4982779;28;20042;-46
2022/07/15 04:07:57;;;;;;;4.68;2.42;;;17.20;58.00;;;;;;5007889;28;20038;-46
2022/07/15 04:10:27;;;;;;;4.35;2.10;;;17.30;58.10;;;;;;5008209;28;20530;-47
2022/07/15 04:12:53;;;;;;;6.45;2.60;;;17.30;58.20;;;;;;4976386;28;20047;-47
2022/07/15 04:15:22;;;;;;;4.55;2.17;;;17.30;58.30;;;;;;4998869;28;20047;-45
2022/07/15 04:17:49;;;;;;;7.35;3.55;;;17.30;58.50;;;;;;4988937;28;20033;-45
2022/07/15 04:20:21;;;;;;;6.10;2.47;;;17.40;58.70;;;;;;4982483;28;20038;-47
2022/07/15 04:22:51;;;;;;;4.25;2.33;;;17.40;58.60;;;;;;4980676;28;20067;-45
2022/07/15 04:25:20;;;;;;;4.60;2.50;;;17.40;58.70;;;;;;4974001;28;20050;-51
2022/07/15 04:27:48;;;;;;;3.58;2.30;;;17.50;58.80;;;;;;4990408;28;20050;-47
2022/07/15 04:30:20;;;;;;;10.80;2.85;;;17.60;58.80;;;;;;4979398;28;20038;-45
2022/07/15 04:32:49;;;;;;;5.45;2.35;;;17.60;58.80;;;;;;5003360;28;20450;-49
2022/07/15 04:35:18;;;;;;;5.93;2.80;;;17.60;58.90;;;;;;5000759;28;20037;-47
2022/07/15 04:37:51;;;;;;;5.78;2.22;;;17.70;58.90;;;;;;4992735;28;20645;-50
2022/07/15 04:40:19;;;;;;;5.07;2.28;;;17.70;58.90;;;;;;4987949;28;20034;-51
2022/07/15 04:42:46;;;;;;;4.93;2.80;;;17.80;58.90;;;;;;4986024;28;20042;-55
2022/07/15 04:45:14;;;;;;;7.93;3.03;;;17.80;58.80;;;;;;4996297;28;20049;-50
2022/07/15 04:47:42;;;;;;;5.10;2.60;;;17.90;58.80;;;;;;4987371;28;20052;-51
2022/07/15 04:52:58;;;;;;;4.65;2.40;;;18.00;58.60;;;;;;4999680;28;20125;-51
2022/07/15 04:55:26;;;;;;;4.78;2.92;;;18.00;58.50;;;;;;5013781;28;20037;-48
2022/07/15 04:58:01;;;;;;;6.00;3.13;;;18.00;58.40;;;;;;4996064;28;20477;-46
2022/07/15 05:00:28;;;;;;;5.10;3.10;;;18.10;58.30;;;;;;5003913;28;20041;-47
2022/07/15 05:02:55;;;;;;;5.00;2.88;;;18.10;58.20;;;;;;4984618;28;20030;-51
2022/07/15 05:05:22;;;;;;;4.70;2.92;;;18.10;58.20;;;;;;4995773;28;20084;-50
2022/07/15 05:07:51;;;;;;;6.60;2.95;;;18.20;58.20;;;;;;4989524;28;20089;-47
2022/07/15 05:10:18;;;;;;;7.78;3.35;;;18.20;58.20;;;;;;4984161;28;20042;-47
2022/07/15 05:12:52;;;;;;;7.75;2.97;;;18.20;58.20;;;;;;4987481;28;20042;-50
2022/07/15 05:15:18;;;;;;;7.15;2.92;;;18.20;58.30;;;;;;5013134;28;20037;-47
2022/07/15 05:17:45;;;;;;;4.53;2.53;;;18.30;58.30;;;;;;5002829;28;20045;-51
2022/07/15 05:20:18;;;;;;;;;;;18.30;58.00;;;;;;4982127;28;20117;-48
2022/07/15 05:22:44;;;;;;;7.28;3.00;;;18.40;57.60;;;;;;4998276;28;19922;-51
2022/07/15 05:25:12;;;;;;;6.47;2.95;;;18.50;57.50;;;;;;4977262;28;20525;-46
2022/07/15 05:27:40;;;;;;;5.88;3.00;;;18.50;57.60;;;;;;4965769;28;20038;-49
2022/07/15 05:30:08;;;;;;;5.50;2.40;;;18.60;57.70;;;;;;4984685;28;20506;-47
2022/07/15 05:32:36;;;;;;;4.72;2.70;;;18.50;57.70;;;;;;4989524;28;20096;-51
2022/07/15 05:35:08;;;;;;;3.47;3.03;;;18.60;57.50;;;;;;5009896;28;20049;-45
2022/07/15 05:37:39;;;;;;;5.50;3.00;;;18.60;57.40;;;;;;4975597;28;20045;-48
2022/07/15 05:40:08;;;;;;;4.05;3.13;;;18.70;57.40;;;;;;4973013;28;20137;-47
2022/07/15 05:42:41;;;;;;;4.93;2.60;;;18.70;57.20;;;;;;4980780;28;20134;-47
2022/07/15 05:45:09;;;;;;;6.15;2.58;;;18.70;57.20;;;;;;4992781;28;20060;-48
2022/07/15 05:47:50;;;;;;;4.15;2.65;;;18.60;57.10;;;;;;4988011;28;20042;-50
2022/07/15 05:50:21;;;;;;;5.28;2.88;;;18.60;57.30;;;;;;4985839;28;20137;-49
2022/07/15 05:52:48;;;;;;;5.32;3.30;;;18.60;57.00;;;;;;4991248;28;20046;-51
2022/07/15 05:55:17;;;;;;;3.90;2.53;;;18.60;57.10;;;;;;4995393;28;20046;-44
2022/07/15 05:57:44;;;;;;;6.50;2.78;;;18.60;57.30;;;;;;4988466;28;20414;-50
2022/07/15 06:00:13;;;;;;;6.28;2.97;;;18.50;57.10;;;;;;4986930;28;20056;-46
2022/07/15 06:02:43;;;;;;;8.95;3.20;;;18.50;57.30;;;;;;5007805;28;20449;-45
2022/07/15 06:05:19;;;;;;;7.82;3.08;;;18.40;57.60;;;;;;4984892;28;20041;-47
2022/07/15 06:07:50;;;;;;;3.63;2.88;;;18.40;57.50;;;;;;4983756;28;20065;-47
2022/07/15 06:10:22;;;;;;;4.63;3.25;;;18.40;57.40;;;;;;4956270;28;20054;-46
2022/07/15 06:12:48;;;;;;;5.60;3.33;;;18.40;57.40;;;;;;4975433;28;20053;-44
2022/07/15 06:15:16;;;;;;;7.25;3.40;;;18.40;57.60;;;;;;4980862;28;20108;-47
2022/07/15 06:17:43;;;;;;;5.03;2.70;;;18.40;57.70;;;;;;4986490;28;20050;-46
2022/07/15 06:20:11;;;;;;;6.95;2.50;;;18.40;57.70;;;;;;5002452;28;20035;-50
2022/07/15 06:22:39;;;;;;;7.15;2.63;;;18.40;57.80;;;;;;4972002;28;20063;-46
2022/07/15 06:25:06;;;;;;;9.55;3.08;;;18.40;57.80;;;;;;4982975;28;20042;-46
2022/07/15 06:27:34;;;;;;;6.85;4.03;;;18.40;57.80;;;;;;4982670;28;20089;-49
2022/07/15 06:30:01;;;;;;;5.43;3.35;;;18.40;57.80;;;;;;4966847;28;20090;-48
2022/07/15 06:32:28;;;;;;;4.07;3.08;;;18.40;57.80;;;;;;4986606;28;20109;-48
2022/07/15 06:34:55;;;;;;;3.47;2.85;;;18.40;57.60;;;;;;4987396;28;20520;-50
2022/07/15 06:37:22;;;;;;;7.00;2.30;;;18.50;57.80;;;;;;4987600;28;20043;-51
2022/07/15 06:39:48;;;;;;;5.38;3.17;;;18.50;57.90;;;;;;4975909;28;20046;-47
2022/07/15 06:42:15;;;;;;;6.30;2.20;;;18.60;58.00;;;;;;4977824;28;20039;-50
2022/07/15 06:44:55;;;;;;;2.88;2.05;;;18.50;57.90;;;;;;4983426;28;20089;-51
2022/07/15 06:47:22;;;;;;;6.15;2.50;;;18.60;57.80;;;;;;4977943;28;20061;-50
2022/07/15 06:49:49;;;;;;;4.50;2.78;;;18.60;57.50;;;;;;4991299;28;20046;-50
2022/07/15 06:52:16;;;;;;;2.97;1.70;;;18.70;57.40;;;;;;4986948;28;20042;-50
2022/07/15 06:54:43;;;;;;;4.38;2.00;;;18.70;57.30;;;;;;4994691;28;20069;-48
2022/07/15 06:57:12;;;;;;;4.35;1.80;;;18.80;57.40;;;;;;4987857;28;20125;-45
2022/07/15 06:59:45;;;;;;;4.30;1.90;;;18.80;57.30;;;;;;4973178;28;20038;-51
2022/07/15 07:02:12;;;;;;;6.93;2.45;;;18.90;57.00;;;;;;4982355;28;20046;-46
2022/07/15 07:04:42;;;;;;;4.60;2.63;;;18.90;56.70;;;;;;4984380;28;20037;-47
2022/07/15 07:07:11;;;;;;;4.00;2.08;;;19.00;56.90;;;;;;5011317;28;20478;-47
2022/07/15 07:09:40;;;;;;;5.90;1.88;;;19.00;56.90;;;;;;4983614;28;20054;-50
2022/07/15 07:12:07;;;;;;;3.33;1.45;;;19.00;56.50;;;;;;4981637;28;20129;-48
2022/07/15 07:14:33;;;;;;;2.72;1.50;;;19.10;56.40;;;;;;4999818;28;20487;-51
2022/07/15 07:17:00;;;;;;;4.00;1.65;;;19.10;56.30;;;;;;4990564;28;20050;-46
2022/07/15 07:19:27;;;;;;;4.57;1.80;;;19.20;56.20;;;;;;5000929;28;20084;-47
2022/07/15 07:21:54;;;;;;;3.60;1.80;;;19.20;56.20;;;;;;5030893;22;20045;-47
2022/07/15 07:24:20;;;;;;;2.90;1.50;;;19.30;56.00;;;;;;5023051;28;20441;-46
2022/07/15 07:26:47;;;;;;;2.78;1.77;;;19.40;55.90;;;;;;5030403;28;20042;-46
2022/07/15 07:29:17;;;;;;;3.15;1.90;;;19.40;55.70;;;;;;5000610;28;20050;-47
2022/07/15 07:31:44;;;;;;;6.95;2.33;;;19.50;55.50;;;;;;5020836;28;20042;-47
2022/07/15 07:34:11;;;;;;;3.25;1.50;;;19.50;55.30;;;;;;5030484;28;20053;-47
2022/07/15 07:36:38;;;;;;;3.13;1.70;;;19.60;55.20;;;;;;5030557;28;20064;-50
2022/07/15 07:39:05;;;;;;;4.57;1.73;;;19.60;55.00;;;;;;5026183;28;20448;-48
2022/07/15 07:41:31;;;;;;;2.90;1.45;;;19.70;54.90;;;;;;5029657;28;20441;-49
2022/07/15 07:43:58;;;;;;;1.80;1.15;;;19.80;54.60;;;;;;5030694;28;20045;-48
2022/07/15 07:46:25;;;;;;;3.70;1.25;;;19.90;54.50;;;;;;5026019;28;20041;-50
2022/07/15 07:48:52;;;;;;;3.80;1.55;;;19.90;54.30;;;;;;5030320;28;20429;-50
2022/07/15 07:51:40;;;;;;;2.03;0.80;;;20.00;54.10;;;;;;5024711;28;20124;-47
2022/07/15 07:54:08;;;;;;;3.33;1.35;;;20.10;54.00;;;;;;5028189;28;20037;-48
2022/07/15 07:56:36;;;;;;;4.88;1.50;;;20.20;54.20;;;;;;5021726;28;20034;-47
2022/07/15 07:59:02;;;;;;;2.92;1.20;;;20.30;54.80;;;;;;5027943;28;20115;-47
2022/07/15 08:01:29;;;;;;;3.22;1.25;;;20.40;53.90;;;;;;5029914;28;20041;-47
2022/07/15 08:03:56;;;;;;;2.55;1.25;;;20.50;53.20;;;;;;5029779;28;20041;-51
2022/07/15 08:06:23;;;;;;;3.88;0.80;;;20.60;52.90;;;;;;5025487;28;20099;-48
2022/07/15 08:08:51;;;;;;;3.38;0.52;;;20.70;51.80;;;;;;5030013;28;20694;-47
2022/07/15 08:11:19;;;;;;;0.90;0.60;;;20.80;51.00;;;;;;5030020;28;20084;-48
2022/07/15 08:13:46;;;;;;;3.88;0.57;;;20.90;50.50;;;;;;5026352;28;20057;-48
2022/07/15 08:16:13;;;;;;;2.97;0.80;;;20.90;50.30;;;;;;5024828;28;20096;-50
2022/07/15 08:18:40;;;;;;;1.38;0.50;;;20.90;49.90;;;;;;5029657;28;20038;-47
2022/07/15 08:21:07;;;;;;;2.58;0.80;;;21.00;49.80;;;;;;5032223;28;20038;-48
2022/07/15 08:23:34;;;;;;;3.58;0.93;;;21.00;49.80;;;;;;5034111;28;20052;-47
2022/07/15 08:26:01;;;;;;;2.50;0.80;;;21.10;49.60;;;;;;5010092;28;20041;-46
2022/07/15 08:28:27;;;;;;;2.10;0.73;;;21.20;49.60;;;;;;5033865;28;20046;-47
2022/07/15 08:31:14;;;;;;;3.33;0.60;;;21.30;49.60;;;;;;5030846;28;20049;-50
2022/07/15 08:33:41;;;;;;;3.17;0.55;;;21.40;49.60;;;;;;5024442;28;20050;-49
2022/07/15 08:36:08;;;;;;;3.17;0.77;;;21.50;49.10;;;;;;5031106;28;20111;-50
2022/07/15 08:38:35;;;;;;;0.95;0.50;;;21.60;48.70;;;;;;5034579;28;20040;-47
2022/07/15 08:41:02;;;;;;;3.67;0.68;;;21.60;48.20;;;;;;5026405;28;20061;-47
2022/07/15 08:43:29;;;;;;;2.55;0.73;;;21.70;47.60;;;;;;5031582;28;20631;-53
2022/07/15 08:45:56;;;;;;;2.92;0.93;;;21.70;47.50;;;;;;5032206;28;20106;-48
2022/07/15 08:48:34;;;;;;;1.27;0.50;;;21.80;47.10;;;;;;5024387;28;20453;-49
2022/07/15 08:51:03;;;;;;;2.80;0.55;;;21.80;46.90;;;;;;5032525;28;20498;-48
2022/07/15 08:53:33;;;;;;;2.00;0.47;;;21.90;46.40;;;;;;5029256;28;20038;-48
2022/07/15 08:56:02;;;;;;;3.42;0.57;;;21.90;46.50;;;;;;5031790;28;20115;-50
2022/07/15 08:58:29;;;;;;;1.92;0.50;;;21.90;46.40;;;;;;5033323;28;20045;-51
2022/07/15 09:01:16;;;;;;;4.50;0.60;;;22.00;46.10;;;;;;5029865;28;20095;-52
2022/07/15 09:03:43;;;;;;;4.20;0.68;;;22.00;46.40;;;;;;5031140;28;20781;-47
2022/07/15 09:06:42;;;;;;;1.25;0.45;;;22.10;46.20;;;;;;5032951;28;20055;-50
2022/07/15 09:09:23;;;;;;;1.77;0.45;;;22.10;45.40;;;;;;5032003;28;20049;-48
2022/07/15 09:12:08;;;;;;;2.08;1.15;;;22.20;45.30;;;;;;5021479;28;20046;-48
2022/07/15 09:14:44;;;;;;;1.83;0.50;;;22.30;45.30;;;;;;5010279;28;20041;-52
2022/07/15 09:17:11;;;;;;;0.93;0.40;;;22.30;44.80;;;;;;5031873;28;20037;-51
2022/07/15 09:20:02;;;;;;;2.88;0.80;;;22.40;44.70;;;;;;5029352;28;20045;-47
2022/07/15 09:22:32;;;;;;;1.15;0.50;;;22.50;44.20;;;;;;5028608;28;20067;-47
2022/07/15 09:25:10;;;;;;;3.45;0.60;;;22.50;44.20;;;;;;5030331;28;20042;-47
2022/07/15 09:27:40;;;;;;;1.15;0.50;;;22.70;43.60;;;;;;5026695;28;20045;-48
2022/07/15 09:33:43;;;;;;;2.83;0.73;;;22.70;43.60;;;;;;5029904;28;20512;-49
2022/07/15 09:36:14;;;;;;;1.17;0.32;;;22.80;43.80;;;;;;5032235;28;20091;-47
2022/07/15 09:38:42;;;;;;;0.93;0.40;;;22.80;44.10;;;;;;5030014;28;20037;-49
2022/07/15 09:41:12;;;;;;;2.60;0.40;;;22.80;44.20;;;;;;5030859;28;20410;-50
2022/07/15 09:43:51;;;;;;;1.92;0.70;;;22.90;43.60;;;;;;5032915;28;20048;-47
2022/07/15 09:46:20;;;;;;;0.95;0.50;;;22.90;43.30;;;;;;5030025;28;20049;-50
2022/07/15 09:48:49;;;;;;;1.45;0.70;;;23.00;43.00;;;;;;5026351;28;20170;-48
2022/07/15 09:51:16;;;;;;;3.00;0.40;;;23.10;42.60;;;;;;5031578;28;20046;-54
2022/07/15 09:53:44;;;;;;;2.75;0.90;;;23.10;42.60;;;;;;5030672;28;20653;-48
2022/07/15 09:56:15;;;;;;;3.65;0.80;;;23.10;43.40;;;;;;5031895;28;20045;-47
2022/07/15 09:58:43;;;;;;;1.75;0.80;;;23.20;42.70;;;;;;5027587;28;20055;-50
2022/07/15 10:01:11;;;;;;;1.63;0.70;;;23.30;42.60;;;;;;5031326;28;20070;-48
2022/07/15 10:03:39;;;;;;;1.95;0.95;;;23.30;42.10;;;;;;5027335;28;20046;-47
2022/07/15 10:06:07;;;;;;;1.05;0.70;;;23.30;42.30;;;;;;5027035;28;20061;-51
2022/07/15 10:08:35;;;;;;;3.25;1.73;;;23.40;42.30;;;;;;5027733;28;20449;-47
2022/07/15 10:11:09;;;;;;;2.13;0.55;;;23.40;41.90;;;;;;5031214;28;20501;-49
2022/07/15 10:14:06;;;;;;;2.17;0.70;;;23.50;41.70;;;;;;5028516;28;20037;-50
2022/07/15 10:17:08;;;;;;;2.08;0.40;;;23.60;41.20;;;;;;5023785;28;20053;-53
2022/07/15 10:19:56;;;;;;;3.43;0.50;;;23.70;41.20;;;;;;4973755;28;20517;-52
2022/07/15 10:22:53;;;;;;;2.38;0.57;;;23.90;41.50;;;;;;5018068;28;20292;-48
2022/07/15 10:25:56;;;;;;;4.45;1.15;;;24.00;41.60;;;;;;4986653;28;20115;-48
2022/07/15 10:28:49;;;;;;;1.40;0.80;;;24.00;41.40;;;;;;5028152;28;20049;-48
2022/07/15 10:31:34;;;;;;;3.17;0.60;;;24.00;40.80;;;;;;5027501;28;20401;-56
2022/07/15 10:34:04;;;;;;;1.52;0.70;;;24.00;41.10;;;;;;5026935;28;20053;-48
2022/07/15 10:36:46;;;;;;;1.70;0.70;;;24.00;41.10;;;;;;5029838;28;20525;-48
2022/07/15 10:39:14;;;;;;;1.45;0.40;;;24.00;40.60;;;;;;5030655;28;20057;-51
2022/07/15 10:42:02;;;;;;;5.20;1.35;;;24.00;40.90;;;;;;5025955;28;20091;-51
2022/07/15 10:44:32;;;;;;;1.98;0.60;;;24.20;40.60;;;;;;5025907;28;20505;-52
2022/07/15 10:47:14;;;;;;;2.63;0.57;;;24.20;39.90;;;;;;5024012;28;20045;-49
2022/07/15 10:49:43;;;;;;;1.27;0.65;;;24.30;39.40;;;;;;5030446;28;20048;-52
2022/07/15 10:52:19;;;;;;;1.15;0.47;;;24.30;39.90;;;;;;5029638;28;20045;-54
2022/07/15 10:54:47;;;;;;;2.13;0.85;;;24.30;39.80;;;;;;5027136;28;20037;-54
2022/07/15 10:57:16;;;;;;;1.65;0.70;;;24.30;39.80;;;;;;5029982;28;20104;-48
2022/07/15 10:59:55;;;;;;;2.30;0.80;;;24.20;39.70;;;;;;5028819;28;20045;-49
2022/07/15 11:02:24;;;;;;;1.25;0.60;;;24.20;39.70;;;;;;5021070;28;20448;-48
2022/07/15 11:05:12;;;;;;;1.23;0.60;;;24.20;39.70;;;;;;5027863;28;20037;-47
2022/07/15 11:07:39;;;;;;;1.80;0.60;;;24.20;39.90;;;;;;5029924;28;20456;-48
2022/07/15 11:10:06;;;;;;;3.30;1.25;;;24.20;39.70;;;;;;5028669;28;20107;-48
2022/07/15 11:12:35;;;;;;;2.75;1.05;;;24.20;39.40;;;;;;5025606;28;20128;-48
2022/07/15 11:15:16;;;;;;;2.92;0.77;;;24.30;39.20;;;;;;5028938;28;20052;-47
2022/07/15 11:17:49;;;;;;;2.38;0.50;;;24.30;38.80;;;;;;5012718;28;20091;-50
2022/07/15 11:20:27;;;;;;;2.10;0.70;;;24.50;38.80;;;;;;5022076;28;20053;-48
2022/07/15 11:22:56;;;;;;;0.82;0.60;;;24.50;38.90;;;;;;5020229;28;20042;-53
2022/07/15 11:25:27;;;;;;;4.32;1.38;;;24.60;38.90;;;;;;5029466;28;20091;-47
2022/07/15 11:28:07;;;;;;;3.15;0.90;;;24.70;39.00;;;;;;5031045;28;20056;-50
2022/07/15 11:30:38;;;;;;;2.83;0.70;;;24.70;38.70;;;;;;5028128;28;20688;-52
2022/07/15 11:33:11;;;;;;;2.50;1.25;;;24.80;38.80;;;;;;5021322;28;20095;-47
2022/07/15 11:35:55;;;;;;;2.88;0.90;;;24.80;39.00;;;;;;5029042;28;20049;-47
2022/07/15 11:38:27;;;;;;;3.95;0.65;;;24.90;39.00;;;;;;5031105;28;20099;-48
2022/07/15 11:44:29;;;;;;;2.10;0.40;;;25.10;38.80;;;;;;5025632;28;20068;-50
2022/07/15 11:46:58;;;;;;;2.67;0.50;;;25.30;38.10;;;;;;5024724;28;20037;-50
2022/07/15 11:49:44;;;;;;;5.07;1.35;;;25.40;38.40;;;;;;5026261;28;20041;-49
2022/07/15 11:52:23;;;;;;;3.17;1.17;;;25.50;37.40;;;;;;5027494;28;20046;-48
2022/07/15 11:54:50;;;;;;;2.45;0.75;;;25.60;36.90;;;;;;5029167;28;20092;-49
2022/07/15 11:57:18;;;;;;;3.13;0.90;;;25.70;37.10;;;;;;5025617;28;20429;-49
2022/07/15 11:59:56;;;;;;;1.90;0.70;;;25.70;37.00;;;;;;5027138;28;20046;-48
2022/07/15 12:02:25;;;;;;;1.67;0.50;;;25.70;37.00;;;;;;5025066;28;20068;-48
2022/07/15 12:05:02;;;;;;;3.00;0.90;;;25.70;37.40;;;;;;5030392;28;20579;-51
2022/07/15 12:07:55;;;;;;;2.05;0.47;;;25.80;37.10;;;;;;5028236;28;20056;-52
2022/07/15 12:10:38;;;;;;;0.80;0.50;;;25.90;37.20;;;;;;5021310;28;20056;-50
2022/07/15 12:13:05;;;;;;;4.07;0.80;;;26.00;36.50;;;;;;5030677;28;20053;-51
2022/07/15 12:15:33;;;;;;;1.10;0.60;;;26.10;37.00;;;;;;5027151;28;20097;-50
2022/07/15 12:18:01;;;;;;;1.67;0.70;;;26.20;37.00;;;;;;5019773;28;20034;-47
2022/07/15 12:20:28;;;;;;;1.52;0.40;;;26.20;36.80;;;;;;5025594;28;20095;-48
2022/07/15 12:23:26;;;;;;;6.28;0.60;;;26.40;37.10;;;;;;5021223;28;20044;-49
2022/07/15 12:26:06;;;;;;;1.85;0.93;;;26.50;36.80;;;;;;5020925;28;20605;-48
2022/07/15 12:28:35;;;;;;;0.90;0.55;;;26.60;35.60;;;;;;5027876;28;20050;-48
2022/07/15 12:31:03;;;;;;;1.17;0.40;;;26.60;35.70;;;;;;5028236;28;20053;-50
2022/07/15 12:33:35;;;;;;;1.58;0.30;;;26.60;36.30;;;;;;5016055;28;20124;-49
2022/07/15 12:36:17;;;;;;;1.58;0.40;;;26.60;36.20;;;;;;5026336;28;20044;-51
2022/07/15 12:38:45;;;;;;;;;;;26.50;35.70;;;;;;5006880;28;20033;-50
2022/07/15 12:41:25;;;;;;;1.45;0.50;;;26.60;37.10;;;;;;5028039;28;19963;-50
2022/07/15 12:43:56;;;;;;;2.53;1.05;;;26.60;35.40;;;;;;5028665;28;20053;-51
2022/07/15 12:46:53;;;;;;;1.30;0.55;;;26.60;35.10;;;;;;5025782;28;20042;-52
2022/07/15 12:49:39;;;;;;;2.25;1.00;;;26.50;35.40;;;;;;5020298;28;20121;-51
2022/07/15 12:52:24;;;;;;;1.02;0.40;;;26.50;35.50;;;;;;5027832;28;20724;-49
2022/07/15 12:54:53;;;;;;;1.85;0.43;;;26.40;35.70;;;;;;5027651;28;20069;-47
2022/07/15 12:57:34;;;;;;;3.72;0.80;;;26.40;36.20;;;;;;5024661;28;20068;-50
2022/07/15 13:00:10;;;;;;;0.95;0.40;;;26.40;35.90;;;;;;5028346;28;20116;-51
2022/07/15 13:02:57;;;;;;;1.20;0.60;;;26.40;35.70;;;;;;5027394;28;20517;-49
2022/07/15 13:05:25;;;;;;;2.72;0.90;;;26.50;35.80;;;;;;5023305;28;20468;-47
2022/07/15 13:07:52;;;;;;;1.25;0.40;;;26.60;35.70;;;;;;5028850;28;20037;-53
2022/07/15 13:10:19;;;;;;;1.38;0.50;;;26.60;35.40;;;;;;5010737;28;20108;-51
2022/07/15 13:12:46;;;;;;;1.48;0.60;;;26.70;35.40;;;;;;5030782;28;20130;-49
2022/07/15 13:15:12;;;;;;;1.25;0.40;;;26.80;35.20;;;;;;5024883;28;20459;-50
2022/07/15 13:17:42;;;;;;;1.70;0.50;;;27.00;35.50;;;;;;5031424;28;20037;-48
2022/07/15 13:20:10;;;;;;;1.65;0.30;;;27.10;35.10;;;;;;5031202;28;20044;-49